Time;durP1;ratioP1;P1;durP2;ratioP2;P2;SDS_P1;SDS_P2;PMS_P1;PMS_P2;Temp;Humidity;BMP_temperature;BMP_pressure;BME280_temperature;BME280_humidity;BME280_pressure;Samples;Min_cycle;Max_cycle;Signal;HPM_P1;HPM_P2
2021/06/27 00:01:20;;;;;;;6.38;2.30;;;;;;;14.86;84.56;101602.16;4788344;30;20031;-78
2021/06/27 00:03:45;;;;;;;6.65;2.40;;;;;;;14.82;84.66;101602.78;4787837;29;20370;-78
2021/06/27 00:06:11;;;;;;;5.13;2.38;;;;;;;14.78;84.91;101594.25;4787479;30;20050;-78
2021/06/27 00:08:37;;;;;;;4.78;2.10;;;;;;;14.85;84.73;101600.50;4801439;29;20420;-77
2021/06/27 00:11:05;;;;;;;6.47;2.80;;;;;;;14.90;84.75;101608.00;4787915;29;20110;-77
2021/06/27 00:13:31;;;;;;;5.65;2.40;;;;;;;14.79;84.79;101591.31;4788187;30;20459;-78
2021/06/27 00:15:57;;;;;;;5.53;2.55;;;;;;;14.82;84.76;101602.78;4786799;29;20040;-78
2021/06/27 00:18:25;;;;;;;4.88;2.50;;;;;;;14.77;85.03;101603.44;4787178;30;20370;-77
2021/06/27 00:20:54;;;;;;;6.13;2.40;;;;;;;14.75;85.19;101602.78;4787855;30;20531;-78
2021/06/27 00:23:22;;;;;;;7.10;3.00;;;;;;;14.66;85.20;101585.06;4787860;30;20034;-78
2021/06/27 00:25:48;;;;;;;7.07;2.83;;;;;;;14.70;85.35;101589.03;4787220;30;20051;-77
2021/06/27 00:28:14;;;;;;;5.97;2.80;;;;;;;14.62;85.47;101589.22;4786576;29;20046;-78
2021/06/27 00:30:43;;;;;;;9.95;3.25;;;;;;;14.61;85.33;101583.00;4802255;29;20031;-78
2021/06/27 00:33:10;;;;;;;7.43;3.05;;;;;;;14.78;85.29;101608.63;4785990;29;20039;-78
2021/06/27 00:35:36;;;;;;;7.80;2.65;;;;;;;14.74;85.85;101612.81;4805733;29;20126;-78
2021/06/27 00:38:03;;;;;;;7.60;2.45;;;;;;;14.60;85.72;101591.31;4790795;30;20046;-78
2021/06/27 00:40:30;;;;;;;6.07;2.60;;;;;;;14.66;85.86;101609.44;4791798;30;20455;-78
2021/06/27 00:42:55;;;;;;;4.45;2.22;;;;;;;14.59;85.53;101600.47;4790069;30;20126;-77
2021/06/27 00:45:23;;;;;;;5.38;2.38;;;;;;;14.63;85.85;101607.16;4790701;29;20441;-78
2021/06/27 00:47:49;;;;;;;3.83;2.22;;;;;;;14.61;85.53;101612.78;4789526;29;20035;-78
2021/06/27 00:50:20;;;;;;;5.15;2.05;;;;;;;14.54;85.44;101598.41;4791883;30;20059;-78
2021/06/27 00:52:47;;;;;;;7.50;2.03;;;;;;;14.56;85.56;101604.44;4791854;29;20039;-78
2021/06/27 00:55:13;;;;;;;4.65;2.15;;;;;;;14.60;85.23;101607.56;4790191;30;20046;-77
2021/06/27 00:57:45;;;;;;;3.30;1.92;;;;;;;14.49;85.59;101600.84;4790724;30;20040;-78
2021/06/27 01:00:16;;;;;;;7.00;2.20;;;;;;;14.50;85.44;101610.63;4791092;30;20061;-78
2021/06/27 01:02:42;;;;;;;7.90;2.30;;;;;;;14.48;85.72;101605.44;4791265;30;20466;-78
2021/06/27 01:05:11;;;;;;;8.32;2.72;;;;;;;14.49;85.78;101608.97;4789751;29;20075;-78
2021/06/27 01:07:36;;;;;;;7.75;2.40;;;;;;;14.47;85.52;101611.91;4790657;29;20047;-78
2021/06/27 01:10:03;;;;;;;6.15;2.50;;;;;;;14.47;85.61;101605.63;4789116;30;20096;-78
2021/06/27 01:12:28;;;;;;;8.70;2.63;;;;;;;14.47;85.95;101600.22;4805387;29;20115;-77
2021/06/27 01:14:55;;;;;;;4.45;2.13;;;;;;;14.28;85.65;101572.06;4790060;29;20386;-78
2021/06/27 01:17:21;;;;;;;8.27;2.85;;;;;;;14.45;85.72;101596.88;4790850;29;20042;-78
2021/06/27 01:19:46;;;;;;;8.25;2.78;;;;;;;14.43;86.02;101602.50;4790248;29;20129;-78
2021/06/27 01:22:12;;;;;;;9.63;3.35;;;;;;;14.43;85.53;101601.66;4788226;30;20144;-78
2021/06/27 01:24:37;;;;;;;7.32;2.75;;;;;;;14.37;85.98;101594.34;4790587;29;20035;-77
2021/06/27 01:27:03;;;;;;;6.40;2.97;;;;;;;14.33;85.81;101586.63;4789908;30;20455;-78
2021/06/27 01:29:30;;;;;;;7.85;2.60;;;;;;;14.23;85.84;101586.19;4774481;29;20050;-78
2021/06/27 01:31:57;;;;;;;7.75;2.63;;;;;;;14.27;85.93;101603.72;4789372;30;20069;-78
2021/06/27 01:34:22;;;;;;;8.45;2.60;;;;;;;14.23;85.98;101582.66;4771348;30;20045;-78
2021/06/27 01:36:48;;;;;;;8.55;2.50;;;;;;;14.23;85.79;101585.38;4773117;30;20032;-78
2021/06/27 01:39:13;;;;;;;7.13;2.50;;;;;;;14.24;85.96;101597.88;4772373;30;20460;-78
2021/06/27 01:41:47;;;;;;;7.35;2.67;;;;;;;14.23;85.75;101590.78;4773263;29;20031;-77
2021/06/27 01:44:13;;;;;;;9.55;2.85;;;;;;;14.21;85.99;101587.47;4786645;29;20191;-78
2021/06/27 01:46:38;;;;;;;11.20;2.90;;;;;;;14.25;85.96;101591.44;4789519;29;20479;-78
2021/06/27 01:49:03;;;;;;;8.82;3.05;;;;;;;14.26;85.91;101606.63;4790257;30;20042;-78
2021/06/27 01:51:29;;;;;;;6.63;2.70;;;;;;;14.18;86.13;101588.69;4773814;30;20482;-78
2021/06/27 01:53:54;;;;;;;7.82;2.92;;;;;;;14.26;86.25;101604.75;4774454;30;20050;-78
2021/06/27 01:56:20;;;;;;;9.57;3.50;;;;;;;14.24;85.97;101596.00;4789376;29;20042;-78
2021/06/27 01:58:50;;;;;;;7.57;2.80;;;;;;;14.27;86.39;101602.88;4789223;30;20550;-77
2021/06/27 02:01:26;;;;;;;8.10;2.70;;;;;;;14.25;86.10;101603.09;4789438;29;20579;-78
2021/06/27 02:03:52;;;;;;;12.23;3.38;;;;;;;14.25;86.20;101594.13;4787644;29;20387;-78
2021/06/27 02:06:19;;;;;;;8.70;2.75;;;;;;;14.28;86.00;101593.72;4789927;30;20036;-78
2021/06/27 02:08:45;;;;;;;11.45;3.08;;;;;;;14.25;85.93;101589.56;4787705;29;20103;-78
2021/06/27 02:11:13;;;;;;;13.30;3.22;;;;;;;14.24;86.34;101585.19;4793666;29;20076;-79
2021/06/27 02:13:39;;;;;;;8.20;3.08;;;;;;;14.24;86.35;101581.66;4809541;29;20094;-77
2021/06/27 02:16:06;;;;;;;8.77;3.30;;;;;;;14.24;86.52;101581.66;4794080;29;20117;-78
2021/06/27 02:18:42;;;;;;;7.53;3.17;;;;;;;14.22;86.45;101576.41;4790828;29;20050;-78
2021/06/27 02:21:20;;;;;;;9.48;3.50;;;;;;;14.26;86.52;101582.25;4789130;29;20092;-78
2021/06/27 02:23:47;;;;;;;10.95;3.40;;;;;;;14.25;86.65;101580.59;4790746;29;20034;-78
2021/06/27 02:26:12;;;;;;;15.00;3.83;;;;;;;14.23;86.26;101569.13;4788815;30;20055;-78
2021/06/27 02:28:38;;;;;;;10.85;3.53;;;;;;;14.24;86.60;101568.94;4782116;29;20039;-78
2021/06/27 02:31:04;;;;;;;9.38;3.42;;;;;;;14.17;86.35;101568.09;4775598;30;20050;-78
2021/06/27 02:33:31;;;;;;;11.02;3.47;;;;;;;14.18;86.60;101569.75;4781605;30;20034;-78
2021/06/27 02:35:57;;;;;;;10.02;3.63;;;;;;;14.16;86.34;101569.13;4802661;29;20374;-78
2021/06/27 02:38:23;;;;;;;7.78;3.65;;;;;;;14.14;86.10;101564.94;4802254;29;20043;-78
2021/06/27 02:40:49;;;;;;;9.35;4.13;;;;;;;14.08;86.29;101572.00;4790097;29;20058;-76
2021/06/27 02:43:17;;;;;;;10.90;3.55;;;;;;;14.07;86.57;101568.47;4789431;30;20066;-78
2021/06/27 02:45:43;;;;;;;9.10;3.67;;;;;;;14.01;86.24;101561.16;4789634;30;20043;-78
2021/06/27 02:48:08;;;;;;;9.77;4.00;;;;;;;14.07;86.62;101565.78;4789028;29;20753;-78
2021/06/27 02:50:36;;;;;;;9.10;3.90;;;;;;;14.07;86.54;101571.19;4789662;30;20096;-78
2021/06/27 02:53:02;;;;;;;8.68;3.85;;;;;;;14.09;86.57;101576.38;4788816;30;20059;-78
2021/06/27 02:55:29;;;;;;;10.73;4.05;;;;;;;14.10;86.46;101569.94;4788246;29;20027;-78
2021/06/27 02:57:54;;;;;;;17.10;4.28;;;;;;;14.09;86.56;101574.50;4789545;30;20027;-78
2021/06/27 03:00:20;;;;;;;15.18;4.90;;;;;;;14.03;86.78;101569.91;4788267;29;20092;-78
2021/06/27 03:02:46;;;;;;;11.35;4.30;;;;;;;14.00;86.54;101575.72;4788040;29;20516;-78
2021/06/27 03:05:13;;;;;;;11.32;4.32;;;;;;;14.03;86.70;101561.78;4788746;30;20051;-78
2021/06/27 03:07:39;;;;;;;14.70;5.22;;;;;;;14.03;86.93;101560.94;4787539;29;20050;-78
2021/06/27 03:10:11;;;;;;;13.35;5.22;;;;;;;14.02;86.74;101554.72;4788940;29;20031;-78
2021/06/27 03:12:47;;;;;;;13.68;5.38;;;;;;;14.02;87.08;101554.72;4790687;29;20031;-78
2021/06/27 03:15:16;;;;;;;11.00;5.15;;;;;;;13.93;86.69;101545.09;4789098;30;20442;-78
2021/06/27 03:17:42;;;;;;;10.27;4.90;;;;;;;14.01;86.67;101561.16;4789383;29;20050;-78
2021/06/27 03:20:10;;;;;;;13.75;5.10;;;;;;;14.03;86.46;101556.38;4787367;30;20064;-78
2021/06/27 03:22:36;;;;;;;12.27;5.18;;;;;;;14.02;86.39;101556.59;4789244;29;20370;-78
2021/06/27 03:25:02;;;;;;;12.90;5.13;;;;;;;14.03;86.58;101561.78;4789197;29;20439;-78
2021/06/27 03:27:28;;;;;;;11.13;4.30;;;;;;;14.02;86.49;101557.41;4790383;29;20035;-78
2021/06/27 03:29:53;;;;;;;11.20;4.60;;;;;;;14.01;86.41;101549.53;4788022;29;20069;-78
2021/06/27 03:32:19;;;;;;;11.75;4.20;;;;;;;14.05;86.59;101550.78;4803576;29;20031;-78
2021/06/27 03:34:45;;;;;;;10.68;4.25;;;;;;;14.06;86.41;101547.03;4760751;30;20041;-78
2021/06/27 03:37:11;;;;;;;8.35;4.22;;;;;;;14.07;86.51;101552.25;4793538;29;20035;-78
2021/06/27 03:39:36;;;;;;;11.23;4.30;;;;;;;14.11;86.67;101541.84;4793252;30;20091;-78
2021/06/27 03:42:02;;;;;;;13.50;4.50;;;;;;;14.07;86.39;101545.97;4790061;29;20080;-78
2021/06/27 03:44:28;;;;;;;9.85;4.03;;;;;;;14.06;86.51;101541.59;4788866;30;20378;-78
2021/06/27 03:46:54;;;;;;;13.68;4.78;;;;;;;14.13;86.73;101536.22;4791288;30;20545;-78
2021/06/27 03:49:20;;;;;;;14.18;4.30;;;;;;;14.21;86.46;101544.16;4790768;29;20050;-78
2021/06/27 03:51:46;;;;;;;11.77;4.70;;;;;;;14.22;86.45;101543.09;4788799;30;20359;-78
2021/06/27 03:54:13;;;;;;;12.98;4.38;;;;;;;14.23;86.54;101542.06;4787320;29;20039;-78
2021/06/27 03:56:39;;;;;;;11.55;4.57;;;;;;;14.20;86.45;101534.34;4789272;29;20130;-78
2021/06/27 03:59:05;;;;;;;9.95;4.50;;;;;;;14.27;86.28;101532.47;4787426;29;20106;-78
2021/06/27 04:01:30;;;;;;;10.13;4.10;;;;;;;14.27;86.55;101536.06;4787208;30;20039;-78
2021/06/27 04:03:56;;;;;;;11.95;4.35;;;;;;;14.29;86.52;101533.94;4787130;30;20074;-78
2021/06/27 04:06:21;;;;;;;9.15;4.18;;;;;;;14.33;86.59;101537.06;4787976;29;20419;-77
2021/06/27 04:08:47;;;;;;;8.30;3.90;;;;;;;14.30;86.17;101529.38;4790588;30;20100;-78
2021/06/27 04:11:12;;;;;;;17.02;4.55;;;;;;;14.36;86.44;101549.38;4790601;30;20031;-78
2021/06/27 04:13:38;;;;;;;17.25;4.72;;;;;;;14.33;86.29;101531.66;4790844;29;20370;-78
2021/06/27 04:16:05;;;;;;;12.38;4.90;;;;;;;14.38;86.47;101540.00;4791021;29;20074;-78
2021/06/27 04:18:32;;;;;;;14.32;5.05;;;;;;;14.36;86.33;101535.84;4790824;30;20031;-78
2021/06/27 04:20:58;;;;;;;15.55;5.32;;;;;;;14.39;86.11;101541.66;4789844;30;20370;-77
2021/06/27 04:23:25;;;;;;;14.38;4.65;;;;;;;14.34;86.04;101534.19;4791557;30;20343;-78
2021/06/27 04:25:50;;;;;;;12.00;4.35;;;;;;;14.38;86.08;101547.31;4789405;30;20038;-78
2021/06/27 04:28:16;;;;;;;15.32;5.07;;;;;;;14.36;86.10;101536.66;4791708;29;20040;-78
2021/06/27 04:30:42;;;;;;;9.65;4.32;;;;;;;14.39;86.33;101530.84;4790718;29;20177;-78
2021/06/27 04:33:09;;;;;;;10.48;4.72;;;;;;;14.44;85.85;101528.38;4790611;30;20035;-78
2021/06/27 04:35:37;;;;;;;12.88;4.47;;;;;;;14.50;86.02;101521.25;4791663;29;20035;-78
2021/06/27 04:38:08;;;;;;;12.73;4.47;;;;;;;14.40;85.50;101510.00;4790708;30;20062;-77
2021/06/27 04:40:35;;;;;;;11.52;4.45;;;;;;;14.48;85.64;101523.38;4791200;30;20027;-78
2021/06/27 04:43:00;;;;;;;11.20;5.15;;;;;;;14.43;85.95;101507.72;4791576;30;20474;-78
2021/06/27 04:45:25;;;;;;;16.13;5.00;;;;;;;14.43;85.44;101506.88;4790799;30;20035;-78
2021/06/27 04:47:52;;;;;;;12.23;4.88;;;;;;;14.26;85.75;101490.22;4791215;30;20362;-78
2021/06/27 04:50:17;;;;;;;15.27;5.72;;;;;;;14.44;85.70;101516.69;4791663;30;20351;-78
2021/06/27 04:52:43;;;;;;;11.45;4.85;;;;;;;14.45;85.63;101516.47;4790774;30;20043;-78
2021/06/27 04:55:11;;;;;;;11.15;4.82;;;;;;;14.45;85.94;101515.66;4774993;29;20393;-78
2021/06/27 04:57:37;;;;;;;10.15;4.57;;;;;;;14.48;85.80;101513.38;4775723;29;20162;-78
2021/06/27 05:00:05;;;;;;;12.18;4.50;;;;;;;14.52;85.89;101514.63;4790829;29;20102;-78
2021/06/27 05:02:31;;;;;;;11.88;4.90;;;;;;;14.54;85.72;101519.88;4785313;30;20057;-78
2021/06/27 05:04:56;;;;;;;10.52;4.68;;;;;;;14.56;85.79;101515.06;4769647;30;20074;-78
2021/06/27 05:07:22;;;;;;;10.55;4.45;;;;;;;14.48;85.62;101505.25;4785622;30;20047;-78
2021/06/27 05:09:49;;;;;;;14.52;5.03;;;;;;;14.57;85.56;101517.56;4783869;30;20463;-78
2021/06/27 05:12:16;;;;;;;11.82;5.03;;;;;;;14.62;85.26;101510.69;4769010;30;20366;-78
2021/06/27 05:14:42;;;;;;;13.55;5.95;;;;;;;14.59;85.39;101513.81;4774488;30;20046;-77
2021/06/27 05:17:07;;;;;;;14.65;5.30;;;;;;;14.57;85.49;101512.16;4785525;29;20039;-78
2021/06/27 05:19:33;;;;;;;12.10;4.75;;;;;;;14.64;85.30;101511.31;4787266;29;20047;-78
2021/06/27 05:21:58;;;;;;;10.27;4.82;;;;;;;14.71;85.18;101512.16;4787280;30;20096;-78
2021/06/27 05:24:24;;;;;;;12.07;4.63;;;;;;;14.73;84.67;101497.31;4784296;29;20459;-77
2021/06/27 05:26:49;;;;;;;12.25;4.63;;;;;;;14.80;85.01;101495.47;4788652;30;20039;-78
2021/06/27 05:29:15;;;;;;;11.80;4.82;;;;;;;14.82;84.48;101500.66;4782891;30;20043;-79
2021/06/27 05:31:40;;;;;;;13.82;4.75;;;;;;;14.82;84.58;101503.38;4785973;30;20070;-78
2021/06/27 05:34:07;;;;;;;8.60;4.18;;;;;;;14.77;84.32;101487.75;4762809;30;20471;-78
2021/06/27 05:36:37;;;;;;;12.38;4.78;;;;;;;14.87;84.22;101495.47;4779183;29;20546;-78
2021/06/27 05:39:10;;;;;;;12.30;4.30;;;;;;;14.85;84.10;101488.59;4782152;30;20103;-78
2021/06/27 05:41:38;;;;;;;10.23;4.30;;;;;;;14.94;83.98;101501.69;4784691;30;20036;-78
2021/06/27 05:44:05;;;;;;;11.63;4.40;;;;;;;14.93;83.99;101500.03;4782356;30;20137;-78
2021/06/27 05:46:31;;;;;;;12.65;4.28;;;;;;;14.93;84.04;101494.63;4782521;30;20031;-78
2021/06/27 05:48:57;;;;;;;13.13;4.80;;;;;;;14.91;83.95;101490.47;4785080;29;20043;-78
2021/06/27 05:51:23;;;;;;;13.95;4.60;;;;;;;14.87;83.81;101490.03;4782944;29;20031;-78
2021/06/27 05:53:48;;;;;;;13.75;4.47;;;;;;;14.92;84.07;101501.06;4765246;30;20042;-78
2021/06/27 05:56:18;;;;;;;13.80;4.93;;;;;;;14.93;84.26;101508.19;4771503;30;20050;-78
2021/06/27 05:58:44;;;;;;;13.80;4.60;;;;;;;14.89;83.83;101506.91;4787842;30;20618;-77
2021/06/27 06:01:12;;;;;;;8.70;4.20;;;;;;;14.92;84.26;101511.91;4787640;29;20031;-78
2021/06/27 06:03:38;;;;;;;13.45;4.40;;;;;;;14.95;84.22;101513.38;4787459;29;20059;-78
2021/06/27 06:06:05;;;;;;;15.05;4.90;;;;;;;14.93;83.94;101508.19;4788864;30;20110;-78
2021/06/27 06:08:30;;;;;;;10.48;4.45;;;;;;;14.93;84.14;101512.72;4788754;30;20368;-78
2021/06/27 06:10:56;;;;;;;11.82;4.50;;;;;;;14.94;83.97;101506.28;4803167;29;20031;-78
2021/06/27 06:13:21;;;;;;;18.70;4.82;;;;;;;14.89;84.21;101493.34;4789470;30;20122;-79
2021/06/27 06:15:47;;;;;;;12.90;4.78;;;;;;;15.02;84.06;101506.88;4787781;30;20031;-78
2021/06/27 06:18:12;;;;;;;16.13;5.10;;;;;;;15.07;83.56;101505.44;4790251;30;20503;-81
2021/06/27 06:20:38;;;;;;;11.70;4.60;;;;;;;15.09;83.58;101500.63;4773482;30;20100;-79
2021/06/27 06:23:03;;;;;;;12.23;4.53;;;;;;;15.20;83.52;101508.94;4786194;29;20034;-79
2021/06/27 06:25:28;;;;;;;17.08;5.55;;;;;;;15.21;83.64;101505.19;4790874;29;20027;-79
2021/06/27 06:27:54;;;;;;;16.58;5.10;;;;;;;15.09;83.39;101493.31;4788070;30;20092;-78
2021/06/27 06:30:19;;;;;;;10.73;4.45;;;;;;;15.10;83.18;101508.56;4788769;29;20035;-79
2021/06/27 06:32:45;;;;;;;12.13;3.85;;;;;;;15.08;82.76;101507.09;4789004;30;20039;-78
2021/06/27 06:35:12;;;;;;;11.60;3.90;;;;;;;15.21;82.54;101502.47;4788538;30;20054;-78
2021/06/27 06:37:37;;;;;;;9.68;4.00;;;;;;;15.28;82.54;101505.16;4789062;29;20035;-79
2021/06/27 06:40:04;;;;;;;9.77;3.70;;;;;;;15.33;82.17;101508.09;4789962;30;20027;-78
2021/06/27 06:42:30;;;;;;;10.18;3.92;;;;;;;15.39;81.89;101506.38;4787172;29;20470;-78
2021/06/27 06:44:55;;;;;;;8.07;3.72;;;;;;;15.41;82.39;101501.59;4773529;30;20055;-79
2021/06/27 06:47:21;;;;;;;8.88;4.00;;;;;;;15.39;82.04;101504.50;4787293;30;20035;-78
2021/06/27 06:49:46;;;;;;;11.50;4.72;;;;;;;15.45;82.07;101508.22;4789518;29;20039;-79
2021/06/27 06:52:11;;;;;;;13.57;4.60;;;;;;;15.44;82.02;101501.16;4787737;29;20111;-80
2021/06/27 06:54:37;;;;;;;10.13;4.40;;;;;;;15.43;82.05;101503.03;4804887;29;20054;-78
2021/06/27 06:57:03;;;;;;;8.82;4.40;;;;;;;15.45;82.06;101503.63;4792607;29;20060;-78
2021/06/27 06:59:28;;;;;;;9.07;3.85;;;;;;;15.42;81.55;101504.06;4793133;29;20043;-79
2021/06/27 07:01:54;;;;;;;8.00;3.88;;;;;;;15.44;81.74;101503.88;4795344;29;20114;-79
2021/06/27 07:04:21;;;;;;;7.50;3.65;;;;;;;15.45;81.56;101506.34;4790234;29;20063;-79
2021/06/27 07:06:47;;;;;;;8.57;4.07;;;;;;;15.45;80.81;101508.22;4789361;30;20058;-79
2021/06/27 07:09:13;;;;;;;9.38;3.70;;;;;;;15.44;80.98;101517.44;4782076;30;20394;-80
2021/06/27 07:11:38;;;;;;;8.77;3.80;;;;;;;15.46;81.25;101518.03;4794688;29;20051;-79
2021/06/27 07:14:04;;;;;;;7.03;3.58;;;;;;;15.50;80.57;101511.97;4787297;29;20049;-79
2021/06/27 07:16:29;;;;;;;9.55;3.85;;;;;;;15.52;80.03;101526.16;4786248;29;20526;-80
2021/06/27 07:18:55;;;;;;;6.40;3.13;;;;;;;15.55;79.76;101521.34;4795534;29;20114;-79
2021/06/27 07:21:20;;;;;;;6.13;3.15;;;;;;;15.54;79.84;101514.25;4794476;29;20027;-79
2021/06/27 07:23:46;;;;;;;10.50;3.83;;;;;;;15.57;79.88;101516.56;4803943;29;20041;-78
2021/06/27 07:26:12;;;;;;;6.45;3.90;;;;;;;15.60;79.96;101519.66;4805664;29;20110;-78
2021/06/27 07:28:37;;;;;;;8.13;4.18;;;;;;;15.67;79.97;101525.09;4796854;29;20035;-78
2021/06/27 07:31:03;;;;;;;9.57;4.05;;;;;;;15.73;79.92;101526.94;4781517;29;20109;-78
2021/06/27 07:33:28;;;;;;;10.45;3.97;;;;;;;15.74;79.94;101528.59;4788346;30;20362;-77
2021/06/27 07:35:54;;;;;;;7.15;3.92;;;;;;;15.76;79.50;101531.09;4786913;29;20063;-76
2021/06/27 07:38:20;;;;;;;7.63;3.40;;;;;;;15.71;79.18;101529.88;4786613;30;20051;-77
2021/06/27 07:40:45;;;;;;;10.20;3.42;;;;;;;15.76;79.46;101536.53;4788060;30;20114;-77
2021/06/27 07:43:11;;;;;;;6.55;3.17;;;;;;;15.79;79.05;101526.06;4787902;30;20142;-77
2021/06/27 07:45:36;;;;;;;8.00;3.17;;;;;;;15.92;78.74;101531.44;4782572;30;20035;-77
2021/06/27 07:48:02;;;;;;;6.43;3.30;;;;;;;16.03;78.59;101531.81;4770141;30;20035;-77
2021/06/27 07:50:28;;;;;;;10.23;4.00;;;;;;;15.95;79.19;101536.41;4770217;30;20032;-77
2021/06/27 07:52:54;;;;;;;11.25;4.18;;;;;;;15.97;79.38;101520.75;4770158;30;20032;-78
2021/06/27 07:55:19;;;;;;;9.35;3.97;;;;;;;16.16;78.93;101531.75;4776729;29;20035;-78
2021/06/27 07:57:45;;;;;;;7.95;3.20;;;;;;;16.26;78.68;101542.09;4788568;30;20119;-78
2021/06/27 08:00:11;;;;;;;8.95;3.38;;;;;;;16.28;78.40;101550.88;4801220;29;20027;-77
2021/06/27 08:02:37;;;;;;;7.30;4.32;;;;;;;16.23;77.92;101548.81;4788682;30;20035;-77
2021/06/27 08:05:04;;;;;;;10.88;3.90;;;;;;;16.06;78.04;101544.94;4787810;29;20063;-78
2021/06/27 08:07:29;;;;;;;11.07;4.38;;;;;;;16.07;78.34;101549.31;4787496;29;20501;-79
2021/06/27 08:09:55;;;;;;;8.02;3.92;;;;;;;16.14;77.85;101544.69;4772806;30;20114;-78
2021/06/27 08:12:21;;;;;;;11.85;4.75;;;;;;;16.03;78.44;101535.34;4788105;30;20027;-78
2021/06/27 08:14:46;;;;;;;11.93;4.18;;;;;;;16.05;78.33;101535.94;4788554;30;20106;-77
2021/06/27 08:17:12;;;;;;;12.50;3.85;;;;;;;16.08;78.25;101540.13;4786162;29;20048;-78
2021/06/27 08:19:38;;;;;;;11.43;3.95;;;;;;;16.10;78.38;101547.00;4787141;29;20056;-78
2021/06/27 08:22:03;;;;;;;13.23;4.15;;;;;;;16.09;78.11;101545.34;4786689;29;20054;-77
2021/06/27 08:24:29;;;;;;;11.70;4.30;;;;;;;16.24;78.23;101555.06;4771959;30;20046;-78
2021/06/27 08:26:55;;;;;;;8.20;3.42;;;;;;;16.29;78.29;101556.09;4787697;29;20110;-77
2021/06/27 08:29:21;;;;;;;13.15;3.50;;;;;;;16.31;77.45;101561.28;4787359;29;20039;-77
2021/06/27 08:31:46;;;;;;;7.22;3.28;;;;;;;16.36;77.35;101559.59;4771053;30;20096;-77
2021/06/27 08:34:12;;;;;;;8.88;3.70;;;;;;;16.33;77.03;101532.03;4786471;30;20054;-77
2021/06/27 08:36:38;;;;;;;7.13;3.75;;;;;;;16.47;76.82;101557.22;4786318;30;20039;-77
2021/06/27 08:39:05;;;;;;;10.60;4.07;;;;;;;16.43;77.14;101554.94;4800561;29;20039;-78
2021/06/27 08:41:31;;;;;;;9.02;3.65;;;;;;;16.32;77.02;101542.03;4771395;30;20040;-77
2021/06/27 08:43:57;;;;;;;8.57;3.50;;;;;;;16.37;77.08;101566.69;4785379;30;20054;-77
2021/06/27 08:46:22;;;;;;;9.88;3.72;;;;;;;16.34;77.00;101548.09;4786164;30;20027;-77
2021/06/27 08:48:48;;;;;;;10.20;3.42;;;;;;;16.58;76.71;101554.63;4788374;29;20108;-77
2021/06/27 08:51:14;;;;;;;10.02;3.60;;;;;;;16.69;76.58;101553.09;4787500;30;20046;-77
2021/06/27 08:53:41;;;;;;;12.18;3.90;;;;;;;16.75;76.28;101554.94;4773749;30;20031;-77
2021/06/27 08:56:08;;;;;;;10.23;3.88;;;;;;;16.82;76.00;101555.72;4790584;29;20028;-77
2021/06/27 08:58:36;;;;;;;10.25;4.10;;;;;;;16.88;75.67;101552.09;4775580;30;20039;-78
2021/06/27 09:01:04;;;;;;;9.32;3.55;;;;;;;16.98;75.04;101561.63;4792239;29;20047;-77
2021/06/27 09:03:29;;;;;;;9.25;3.65;;;;;;;16.97;74.32;101563.53;4790602;29;20566;-77
2021/06/27 09:05:55;;;;;;;8.38;3.38;;;;;;;16.78;74.42;101505.56;4791715;30;20114;-76
2021/06/27 09:08:20;;;;;;;7.80;3.30;;;;;;;17.10;74.46;101543.53;4774977;30;20100;-77
2021/06/27 09:10:46;;;;;;;10.07;3.25;;;;;;;17.25;73.91;101552.19;4790202;29;20095;-77
2021/06/27 09:13:12;;;;;;;9.50;3.35;;;;;;;17.26;73.91;101545.69;4791037;29;20128;-77
2021/06/27 09:15:50;;;;;;;9.10;3.45;;;;;;;17.30;74.05;101549.59;4789200;29;20130;-77
2021/06/27 09:18:15;;;;;;;7.22;3.10;;;;;;;17.42;73.72;101554.28;4789839;30;20336;-78
2021/06/27 09:20:44;;;;;;;7.07;2.90;;;;;;;17.54;73.61;101549.75;4790263;30;20053;-77
2021/06/27 09:23:12;;;;;;;7.75;3.40;;;;;;;17.69;72.83;101544.78;4789545;29;20078;-77
2021/06/27 09:25:40;;;;;;;6.50;3.00;;;;;;;17.77;72.13;101533.59;4790204;29;20023;-78
2021/06/27 09:28:17;;;;;;;11.23;3.58;;;;;;;17.84;71.55;101545.22;4789685;29;20427;-77
2021/06/27 09:30:48;;;;;;;10.13;3.22;;;;;;;17.64;71.44;101555.50;4789831;29;20249;-79
2021/06/27 09:33:18;;;;;;;9.52;3.00;;;;;;;17.61;71.66;101553.22;4791002;29;20101;-78
2021/06/27 09:35:52;;;;;;;13.52;3.35;;;;;;;17.68;72.25;101551.28;4806782;29;20031;-78
2021/06/27 09:38:24;;;;;;;;;;;;;;;17.78;72.45;101548.88;4808594;29;20051;-78
2021/06/27 09:40:52;;;;;;;12.38;3.50;;;;;;;17.89;71.97;101555.44;4805409;29;19985;-78
2021/06/27 09:43:19;;;;;;;9.57;3.42;;;;;;;17.85;71.40;101554.25;4791902;30;20031;-79
2021/06/27 09:45:51;;;;;;;9.48;3.20;;;;;;;17.67;71.61;101554.22;4806231;29;20059;-79
2021/06/27 09:48:17;;;;;;;10.43;3.42;;;;;;;17.83;71.80;101562.63;4803523;29;20043;-80
2021/06/27 09:50:42;;;;;;;9.13;3.40;;;;;;;17.75;72.06;101552.03;4791291;29;20740;-79
2021/06/27 09:53:38;;;;;;;8.48;3.38;;;;;;;17.84;71.77;101553.38;4791546;30;20039;-79
2021/06/27 09:56:04;;;;;;;;;;;;;;;17.95;71.89;101550.97;4780333;30;20039;-78
2021/06/27 09:58:30;;;;;;;8.00;3.10;;;;;;;17.97;71.10;101552.38;4778711;29;19941;-80
2021/06/27 10:00:57;;;;;;;9.25;2.97;;;;;;;18.02;70.95;101555.25;4811172;29;20050;-77
2021/06/27 10:03:24;;;;;;;7.93;3.05;;;;;;;18.06;70.76;101547.47;4795317;29;20066;-78
2021/06/27 10:05:50;;;;;;;8.23;2.95;;;;;;;18.28;70.36;101548.63;4810475;29;20054;-76
2021/06/27 10:08:28;;;;;;;7.25;2.95;;;;;;;18.34;69.63;101554.19;4791513;29;20035;-76
2021/06/27 10:11:17;;;;;;;7.47;2.72;;;;;;;18.22;68.87;101548.72;4805319;29;20027;-78
2021/06/27 10:13:52;;;;;;;7.63;3.45;;;;;;;18.10;68.88;101521.41;4788591;29;20348;-78
2021/06/27 10:16:34;;;;;;;6.45;3.20;;;;;;;18.27;68.53;101544.22;4786455;30;20042;-77
2021/06/27 10:19:00;;;;;;;7.55;2.72;;;;;;;18.55;68.34;101553.66;4772309;30;20047;-78
2021/06/27 10:21:27;;;;;;;7.25;3.03;;;;;;;18.56;68.07;101568.94;4790121;30;20031;-77
2021/06/27 10:23:54;;;;;;;8.20;3.00;;;;;;;18.57;67.80;101564.31;4788816;29;20127;-77
2021/06/27 10:26:28;;;;;;;8.18;3.05;;;;;;;18.53;68.22;101556.59;4787894;29;20039;-78
2021/06/27 10:28:54;;;;;;;9.65;3.30;;;;;;;18.55;68.40;101553.66;4790037;29;20038;-77
2021/06/27 10:31:22;;;;;;;10.82;3.30;;;;;;;18.58;68.06;101550.47;4788687;29;20031;-78
2021/06/27 10:33:49;;;;;;;6.38;3.03;;;;;;;18.48;68.17;101544.75;4788126;30;20059;-78
2021/06/27 10:36:24;;;;;;;9.32;3.08;;;;;;;18.47;67.84;101548.53;4787456;30;20380;-77
2021/06/27 10:38:49;;;;;;;10.55;3.63;;;;;;;18.66;67.62;101535.66;4782000;29;20043;-78
2021/06/27 10:41:15;;;;;;;7.93;3.05;;;;;;;18.72;67.66;101541.03;4757518;30;20050;-78
2021/06/27 10:43:56;;;;;;;11.07;3.10;;;;;;;19.05;67.03;101542.34;4785073;30;20050;-78
2021/06/27 10:46:39;;;;;;;6.90;3.17;;;;;;;19.00;66.24;101534.88;4775716;29;20351;-79
2021/06/27 10:49:06;;;;;;;10.40;3.42;;;;;;;19.20;66.12;101531.81;4783860;30;20042;-78
2021/06/27 10:52:11;;;;;;;8.60;3.33;;;;;;;19.42;66.26;101540.16;4791702;29;20043;-78
2021/06/27 10:54:39;;;;;;;10.57;3.47;;;;;;;19.56;65.30;101539.91;4803362;29;20039;-77
2021/06/27 10:57:17;;;;;;;8.63;3.30;;;;;;;19.50;65.07;101514.38;4805217;29;20062;-78
2021/06/27 10:59:47;;;;;;;9.90;3.70;;;;;;;19.79;64.88;101536.31;4793959;29;20398;-78
2021/06/27 11:02:39;;;;;;;7.13;3.55;;;;;;;19.88;64.59;101538.41;4789440;29;20031;-79
2021/06/27 11:05:32;;;;;;;9.23;3.80;;;;;;;20.16;64.67;101539.47;4792458;29;20448;-79
2021/06/27 11:07:59;;;;;;;13.68;3.85;;;;;;;20.27;63.90;101535.88;4787449;29;20040;-78
2021/06/27 11:10:43;;;;;;;8.30;3.72;;;;;;;20.45;62.67;101532.06;4776550;30;20039;-79
2021/06/27 11:13:08;;;;;;;11.35;3.65;;;;;;;20.68;62.36;101531.13;4776081;30;20028;-78
2021/06/27 11:15:37;;;;;;;9.90;3.70;;;;;;;20.83;62.25;101536.03;4781037;30;20042;-78
2021/06/27 11:18:10;;;;;;;10.27;3.88;;;;;;;20.92;61.90;101536.41;4788288;30;20031;-77
2021/06/27 11:20:45;;;;;;;8.93;3.90;;;;;;;20.79;61.04;101534.84;4786388;29;20035;-79
2021/06/27 11:23:10;;;;;;;12.38;3.95;;;;;;;20.99;60.99;101528.84;4786513;29;20035;-78